Time;durP1;ratioP1;P1;durP2;ratioP2;P2;SDS_P1;SDS_P2;PMS_P1;PMS_P2;Temp;Humidity;BMP_temperature;BMP_pressure;BME280_temperature;BME280_humidity;BME280_pressure;Samples;Min_cycle;Max_cycle;Signal;HPM_P1;HPM_P2
2021/06/26 00:00:16;;;;;;;0.00;0.00;;;19.00;63.70;;;;;;5013927;28;20037;-84
2021/06/26 00:02:42;;;;;;;1.02;0.00;;;19.00;63.90;;;;;;5013833;28;20026;-84
2021/06/26 00:05:09;;;;;;;0.13;0.08;;;18.90;63.90;;;;;;5028716;28;20018;-84
2021/06/26 00:07:36;;;;;;;0.80;0.10;;;18.90;63.90;;;;;;5028904;28;20033;-84
2021/06/26 00:10:03;;;;;;;0.10;0.00;;;18.90;64.00;;;;;;5013927;28;20392;-86
2021/06/26 00:12:29;;;;;;;0.30;0.00;;;18.90;64.10;;;;;;5010388;28;20022;-84
2021/06/26 00:14:55;;;;;;;0.35;0.05;;;18.90;64.20;;;;;;5013718;28;20044;-84
2021/06/26 00:17:21;;;;;;;0.38;0.20;;;18.90;64.30;;;;;;5013080;28;20543;-84
2021/06/26 00:19:47;;;;;;;0.00;0.00;;;18.80;64.40;;;;;;5028531;28;20045;-86
2021/06/26 00:22:13;;;;;;;0.47;0.08;;;18.90;64.50;;;;;;5013700;28;20026;-84
2021/06/26 00:24:39;;;;;;;0.17;0.00;;;18.90;64.40;;;;;;5028429;28;20033;-84
2021/06/26 00:27:06;;;;;;;0.00;0.00;;;18.80;64.40;;;;;;5013816;28;20503;-84
2021/06/26 00:29:32;;;;;;;1.00;0.10;;;18.80;64.40;;;;;;5013233;28;20054;-84
2021/06/26 00:31:58;;;;;;;0.22;0.03;;;18.80;64.50;;;;;;5012920;28;20034;-84
2021/06/26 00:34:24;;;;;;;0.10;0.00;;;18.90;64.60;;;;;;5013557;28;20034;-84
2021/06/26 00:36:50;;;;;;;0.38;0.08;;;18.80;64.60;;;;;;5028969;28;20388;-84
2021/06/26 00:39:16;;;;;;;0.00;0.00;;;18.80;64.70;;;;;;5013606;28;20042;-84
2021/06/26 00:41:42;;;;;;;0.05;0.00;;;18.80;65.60;;;;;;5013153;28;20469;-84
2021/06/26 00:44:09;;;;;;;0.00;0.00;;;18.80;64.90;;;;;;5013155;28;20038;-84
2021/06/26 00:46:35;;;;;;;0.10;0.00;;;18.80;64.90;;;;;;5027805;28;20041;-85
2021/06/26 00:49:02;;;;;;;1.00;0.20;;;18.80;65.10;;;;;;5028129;28;20041;-85
2021/06/26 00:51:28;;;;;;;0.95;0.00;;;18.80;65.10;;;;;;5013613;28;20028;-84
2021/06/26 00:53:54;;;;;;;0.10;0.00;;;18.70;65.20;;;;;;5012897;28;20030;-84
2021/06/26 00:56:20;;;;;;;0.13;0.00;;;18.80;65.20;;;;;;5028085;28;20400;-84
2021/06/26 00:58:46;;;;;;;0.20;0.00;;;18.70;65.10;;;;;;5028002;28;20082;-84
2021/06/26 01:01:13;;;;;;;0.08;0.00;;;18.80;65.30;;;;;;5012424;28;20480;-84
2021/06/26 01:03:39;;;;;;;0.10;0.00;;;18.80;65.30;;;;;;5011633;28;20042;-85
2021/06/26 01:06:05;;;;;;;0.25;0.05;;;18.80;65.30;;;;;;5012073;28;20026;-84
2021/06/26 01:08:31;;;;;;;1.85;0.10;;;18.70;65.30;;;;;;5012741;28;20041;-85
2021/06/26 01:10:58;;;;;;;0.77;0.30;;;18.80;65.40;;;;;;5027836;28;20026;-84
2021/06/26 01:13:24;;;;;;;0.45;0.10;;;18.80;65.40;;;;;;5012663;28;20049;-84
2021/06/26 01:15:53;;;;;;;0.00;0.00;;;18.70;65.40;;;;;;5012160;28;20018;-84
2021/06/26 01:18:19;;;;;;;0.10;0.00;;;18.80;65.60;;;;;;5011561;28;20037;-85
2021/06/26 01:20:46;;;;;;;0.77;0.22;;;18.70;65.50;;;;;;5008123;28;20061;-85
2021/06/26 01:23:13;;;;;;;0.20;0.10;;;18.70;65.60;;;;;;5006558;28;20038;-84
2021/06/26 01:25:39;;;;;;;0.10;0.00;;;18.70;65.60;;;;;;5027532;28;20022;-84
2021/06/26 01:28:05;;;;;;;0.55;0.20;;;18.70;65.70;;;;;;5012326;28;20069;-85
2021/06/26 01:30:33;;;;;;;0.00;0.00;;;18.70;65.70;;;;;;5027523;28;20511;-84
2021/06/26 01:32:59;;;;;;;1.08;0.15;;;18.70;65.70;;;;;;5012184;28;20025;-85
2021/06/26 01:35:26;;;;;;;0.30;0.00;;;18.70;65.70;;;;;;5027090;28;20044;-85
2021/06/26 01:37:52;;;;;;;1.17;0.20;;;18.70;65.80;;;;;;5011748;28;20041;-85
2021/06/26 01:40:20;;;;;;;0.20;0.00;;;18.70;65.80;;;;;;5012369;28;20018;-84
2021/06/26 01:42:46;;;;;;;0.17;0.05;;;18.70;66.70;;;;;;5012541;28;20050;-84
2021/06/26 01:45:13;;;;;;;0.10;0.10;;;18.70;66.00;;;;;;5009245;28;20476;-84
2021/06/26 01:47:47;;;;;;;0.45;0.20;;;18.70;66.00;;;;;;5026904;28;20034;-84
2021/06/26 01:50:15;;;;;;;0.00;0.00;;;18.70;66.00;;;;;;5027486;28;20034;-84
2021/06/26 01:52:43;;;;;;;0.30;0.10;;;18.70;66.00;;;;;;5027175;28;20078;-84
2021/06/26 01:55:11;;;;;;;0.10;0.00;;;18.70;66.10;;;;;;5027292;28;20025;-84
2021/06/26 01:57:37;;;;;;;0.32;0.10;;;18.70;66.10;;;;;;5012583;28;20049;-85
2021/06/26 02:00:05;;;;;;;0.30;0.10;;;18.70;66.20;;;;;;5012021;28;20050;-84
2021/06/26 02:02:31;;;;;;;0.30;0.15;;;18.70;66.20;;;;;;5024635;28;20033;-85
2021/06/26 02:04:57;;;;;;;0.00;0.00;;;18.70;66.30;;;;;;5022400;28;20033;-84
2021/06/26 02:07:23;;;;;;;0.10;0.00;;;18.70;66.30;;;;;;5018670;28;20038;-84
2021/06/26 02:09:49;;;;;;;0.55;0.25;;;18.70;66.40;;;;;;4999311;28;20034;-86
2021/06/26 02:12:15;;;;;;;1.25;0.55;;;18.70;67.20;;;;;;4991948;28;20038;-85
2021/06/26 02:14:41;;;;;;;0.00;0.00;;;18.70;66.50;;;;;;5015953;28;20389;-84
2021/06/26 02:17:07;;;;;;;0.32;0.17;;;18.60;66.50;;;;;;5018849;28;20034;-84
2021/06/26 02:19:34;;;;;;;0.00;0.00;;;18.70;66.60;;;;;;5018613;28;20057;-84
2021/06/26 02:22:01;;;;;;;0.38;0.08;;;18.60;66.60;;;;;;4992264;28;20041;-85
2021/06/26 02:24:27;;;;;;;0.25;0.10;;;18.60;66.60;;;;;;4997968;28;20026;-84
2021/06/26 02:26:53;;;;;;;0.82;0.05;;;18.60;66.60;;;;;;5017867;28;20384;-84
2021/06/26 02:29:19;;;;;;;0.25;0.00;;;18.60;66.60;;;;;;5002764;28;20049;-84
2021/06/26 02:31:45;;;;;;;0.00;0.00;;;18.70;66.80;;;;;;5002203;28;20505;-84
2021/06/26 02:34:13;;;;;;;0.00;0.00;;;18.60;66.70;;;;;;5021344;28;20018;-84
2021/06/26 02:36:40;;;;;;;0.30;0.10;;;18.60;66.80;;;;;;5008126;28;20046;-84
2021/06/26 02:39:06;;;;;;;3.17;0.20;;;18.60;66.80;;;;;;5012222;28;20053;-84
2021/06/26 02:41:32;;;;;;;0.20;0.00;;;18.60;66.90;;;;;;5011743;28;20033;-84
2021/06/26 02:43:58;;;;;;;0.40;0.22;;;18.60;67.00;;;;;;5010217;28;20037;-84
2021/06/26 02:46:24;;;;;;;1.27;0.20;;;18.60;67.00;;;;;;5009681;28;20033;-84
2021/06/26 02:48:50;;;;;;;0.00;0.00;;;18.60;67.10;;;;;;5029919;28;20037;-84
2021/06/26 02:51:16;;;;;;;3.85;0.20;;;18.60;67.10;;;;;;5015870;28;20388;-84
2021/06/26 02:53:43;;;;;;;0.95;0.15;;;18.60;67.20;;;;;;5015283;28;20041;-83
2021/06/26 02:56:09;;;;;;;0.10;0.00;;;18.50;67.20;;;;;;5015163;28;20023;-84
2021/06/26 02:58:35;;;;;;;0.45;0.10;;;18.50;67.30;;;;;;5015313;28;20038;-84
2021/06/26 03:01:01;;;;;;;0.40;0.20;;;18.50;67.30;;;;;;4997611;28;20030;-84
2021/06/26 03:03:27;;;;;;;0.10;0.00;;;18.50;67.30;;;;;;5015540;28;20025;-84
2021/06/26 03:05:53;;;;;;;0.73;0.10;;;18.50;67.40;;;;;;5014775;28;20053;-84
2021/06/26 03:08:19;;;;;;;0.00;0.00;;;18.50;67.50;;;;;;5014913;28;20034;-84
2021/06/26 03:10:45;;;;;;;0.35;0.05;;;18.50;67.50;;;;;;5013566;28;20044;-84
2021/06/26 03:13:11;;;;;;;0.75;0.00;;;18.40;67.50;;;;;;5029984;28;20034;-84
2021/06/26 03:15:37;;;;;;;0.35;0.00;;;18.50;67.60;;;;;;5029965;28;20392;-84
2021/06/26 03:18:04;;;;;;;0.10;0.08;;;18.40;67.60;;;;;;5014984;28;20038;-84
2021/06/26 03:20:33;;;;;;;1.60;0.10;;;18.40;67.60;;;;;;5014769;28;20392;-84
2021/06/26 03:22:59;;;;;;;0.10;0.00;;;18.50;67.80;;;;;;5014747;28;20017;-85
2021/06/26 03:25:25;;;;;;;0.28;0.20;;;18.40;67.70;;;;;;5014624;28;20038;-84
2021/06/26 03:27:51;;;;;;;0.82;0.15;;;18.40;67.80;;;;;;5013098;28;20034;-86
2021/06/26 03:30:18;;;;;;;1.35;0.17;;;18.40;67.80;;;;;;5014612;28;20050;-84
2021/06/26 03:32:44;;;;;;;0.98;0.63;;;18.40;67.80;;;;;;5029542;28;20484;-84
2021/06/26 03:35:10;;;;;;;0.70;0.00;;;18.40;67.90;;;;;;5014487;28;20026;-84
2021/06/26 03:37:36;;;;;;;0.35;0.15;;;18.40;67.90;;;;;;5029436;28;20050;-84
2021/06/26 03:40:04;;;;;;;0.20;0.00;;;18.40;67.90;;;;;;5013094;28;20045;-84
2021/06/26 03:42:30;;;;;;;0.38;0.20;;;18.40;67.90;;;;;;5009173;28;20503;-84
2021/06/26 03:44:56;;;;;;;0.20;0.00;;;18.40;67.90;;;;;;5014364;28;20041;-84
2021/06/26 03:47:22;;;;;;;0.60;0.10;;;18.40;68.00;;;;;;5029151;28;20030;-84
2021/06/26 03:49:48;;;;;;;0.20;0.00;;;18.40;68.00;;;;;;5012915;28;20034;-84
2021/06/26 03:52:14;;;;;;;0.80;0.30;;;18.40;68.10;;;;;;5014199;28;20034;-84
2021/06/26 03:54:40;;;;;;;1.30;0.20;;;18.40;68.10;;;;;;5014363;28;20037;-84
2021/06/26 03:57:06;;;;;;;0.77;0.25;;;18.40;68.10;;;;;;5009973;28;20042;-84
2021/06/26 03:59:33;;;;;;;0.10;0.00;;;18.40;68.10;;;;;;5009705;28;20057;-84
2021/06/26 04:01:59;;;;;;;0.10;0.00;;;18.40;68.10;;;;;;5013385;28;20034;-84
2021/06/26 04:04:25;;;;;;;0.52;0.17;;;18.40;68.10;;;;;;5013903;28;20404;-83
2021/06/26 04:06:51;;;;;;;1.48;0.20;;;18.40;68.20;;;;;;5029301;28;20037;-84
2021/06/26 04:09:17;;;;;;;0.30;0.10;;;18.40;68.20;;;;;;5014383;28;20392;-84
2021/06/26 04:11:43;;;;;;;0.03;0.00;;;18.40;68.20;;;;;;5028700;28;20030;-83
2021/06/26 04:14:09;;;;;;;0.70;0.10;;;18.40;68.30;;;;;;5028924;28;20527;-84
2021/06/26 04:16:35;;;;;;;0.10;0.05;;;18.40;68.30;;;;;;5013324;28;20030;-82
2021/06/26 04:19:01;;;;;;;0.70;0.20;;;18.40;68.30;;;;;;4998195;28;20034;-85
2021/06/26 04:21:28;;;;;;;0.50;0.15;;;18.40;68.30;;;;;;5014064;28;20026;-84
2021/06/26 04:23:54;;;;;;;0.47;0.20;;;18.40;68.30;;;;;;5028184;28;20042;-84
2021/06/26 04:26:20;;;;;;;2.85;0.28;;;18.40;68.30;;;;;;5013136;28;20041;-84
2021/06/26 04:28:46;;;;;;;0.00;0.00;;;18.40;68.40;;;;;;5028496;28;20050;-82
2021/06/26 04:31:12;;;;;;;0.08;0.00;;;18.40;68.40;;;;;;5012968;28;20034;-84
2021/06/26 04:33:38;;;;;;;0.35;0.10;;;18.40;68.50;;;;;;5013536;28;20038;-84
2021/06/26 04:36:05;;;;;;;2.20;0.40;;;18.40;68.50;;;;;;5013840;28;20491;-83
2021/06/26 04:38:31;;;;;;;0.93;0.43;;;18.40;68.50;;;;;;5013485;28;20058;-83
2021/06/26 04:40:57;;;;;;;0.65;0.43;;;18.40;68.60;;;;;;5012952;28;20033;-84
2021/06/26 04:43:24;;;;;;;0.57;0.08;;;18.40;68.60;;;;;;5013191;28;20049;-83
2021/06/26 04:45:50;;;;;;;0.20;0.10;;;18.40;68.60;;;;;;5028362;28;20030;-85
2021/06/26 04:48:17;;;;;;;1.00;0.17;;;18.40;68.70;;;;;;5013757;28;20041;-82
2021/06/26 04:50:43;;;;;;;1.17;0.52;;;18.40;68.70;;;;;;5028049;28;20034;-83
2021/06/26 04:53:09;;;;;;;1.67;0.13;;;18.40;68.70;;;;;;5028205;28;20392;-84
2021/06/26 04:55:35;;;;;;;0.70;0.10;;;18.40;68.70;;;;;;5012814;28;20026;-84
2021/06/26 04:58:01;;;;;;;0.75;0.15;;;18.40;68.80;;;;;;5012485;28;20423;-85
2021/06/26 05:00:27;;;;;;;0.22;0.10;;;18.50;68.80;;;;;;5012941;28;20037;-84
2021/06/26 05:02:53;;;;;;;2.80;0.30;;;18.50;68.80;;;;;;5008246;28;20046;-84
2021/06/26 05:05:19;;;;;;;0.77;0.10;;;18.40;69.60;;;;;;5007714;28;20476;-84
2021/06/26 05:07:45;;;;;;;0.50;0.10;;;18.50;68.80;;;;;;5027981;28;20034;-84
2021/06/26 05:10:12;;;;;;;1.13;0.20;;;18.50;68.80;;;;;;5012272;28;20034;-84
2021/06/26 05:12:42;;;;;;;4.78;0.60;;;18.50;68.90;;;;;;5028007;28;20093;-84
2021/06/26 05:15:09;;;;;;;0.63;0.22;;;18.50;68.90;;;;;;5012089;28;20048;-84
2021/06/26 05:17:35;;;;;;;0.47;0.25;;;18.50;68.80;;;;;;5012559;28;20041;-84
2021/06/26 05:20:02;;;;;;;0.93;0.30;;;18.50;68.90;;;;;;5012349;28;20045;-84
2021/06/26 05:22:28;;;;;;;0.30;0.10;;;18.60;68.90;;;;;;5012766;28;20022;-85
2021/06/26 05:24:54;;;;;;;3.58;0.65;;;18.60;68.80;;;;;;5027507;28;20041;-84
2021/06/26 05:27:20;;;;;;;1.50;0.10;;;18.60;68.80;;;;;;5012884;28;20034;-86
2021/06/26 05:29:46;;;;;;;0.82;0.15;;;18.60;68.70;;;;;;5027544;28;20246;-84
2021/06/26 05:32:12;;;;;;;0.47;0.22;;;18.60;68.80;;;;;;5011650;28;20042;-84
2021/06/26 05:34:38;;;;;;;2.15;0.73;;;18.60;68.80;;;;;;5027670;28;20369;-85
2021/06/26 05:37:05;;;;;;;0.70;0.20;;;18.70;68.80;;;;;;5012537;28;20046;-84
2021/06/26 05:39:31;;;;;;;1.02;0.30;;;18.60;68.70;;;;;;5012482;28;20049;-85
2021/06/26 05:41:57;;;;;;;0.88;0.20;;;18.70;68.80;;;;;;5012163;28;20034;-84
2021/06/26 05:44:23;;;;;;;2.08;0.20;;;18.70;68.80;;;;;;5012213;28;20038;-83
2021/06/26 05:46:50;;;;;;;7.13;0.40;;;18.70;68.90;;;;;;5011597;28;20499;-84
2021/06/26 05:49:16;;;;;;;0.10;0.10;;;18.70;68.90;;;;;;5027381;28;20044;-85
2021/06/26 05:51:42;;;;;;;0.70;0.08;;;18.70;68.90;;;;;;5012130;28;20033;-84
2021/06/26 05:54:08;;;;;;;0.77;0.25;;;18.70;68.90;;;;;;5012109;28;20389;-86
2021/06/26 05:56:34;;;;;;;0.73;0.00;;;18.70;68.90;;;;;;5027296;28;20038;-84
2021/06/26 05:59:00;;;;;;;0.90;0.30;;;18.70;69.00;;;;;;5012015;28;20045;-84
2021/06/26 06:01:26;;;;;;;1.88;0.30;;;18.70;69.00;;;;;;5026332;28;20042;-86
2021/06/26 06:03:53;;;;;;;1.15;0.30;;;18.70;69.00;;;;;;5010956;28;20058;-84
2021/06/26 06:06:19;;;;;;;0.40;0.10;;;18.70;68.90;;;;;;5012713;28;20054;-84
2021/06/26 06:08:45;;;;;;;0.55;0.20;;;18.80;69.10;;;;;;5011627;28;20037;-84
2021/06/26 06:11:11;;;;;;;2.78;0.35;;;18.80;69.00;;;;;;5011791;28;20030;-84
2021/06/26 06:13:38;;;;;;;1.08;0.15;;;18.80;69.00;;;;;;5011746;28;20484;-84
2021/06/26 06:16:04;;;;;;;1.50;0.28;;;18.90;69.00;;;;;;5026473;28;20041;-84
2021/06/26 06:18:30;;;;;;;0.28;0.05;;;18.90;69.00;;;;;;5011269;28;20394;-84
2021/06/26 06:20:56;;;;;;;1.33;0.08;;;19.00;68.90;;;;;;5026982;28;20033;-84
2021/06/26 06:23:22;;;;;;;2.30;0.22;;;19.00;68.80;;;;;;5009193;28;20049;-84
2021/06/26 06:25:48;;;;;;;0.98;0.20;;;19.10;68.70;;;;;;5021716;28;20652;-84
2021/06/26 06:28:15;;;;;;;0.45;0.10;;;19.20;68.70;;;;;;5015810;28;20022;-84
2021/06/26 06:30:41;;;;;;;0.70;0.20;;;19.20;68.60;;;;;;5015218;28;20038;-83
2021/06/26 06:33:07;;;;;;;0.65;0.30;;;19.10;68.70;;;;;;5016028;28;20383;-85
2021/06/26 06:35:33;;;;;;;2.00;0.50;;;19.10;68.80;;;;;;5030766;28;20030;-85
2021/06/26 06:37:59;;;;;;;0.73;0.20;;;19.20;68.90;;;;;;5030061;28;20034;-83
2021/06/26 06:40:26;;;;;;;0.82;0.30;;;19.10;68.80;;;;;;5030816;28;20424;-83
2021/06/26 06:42:52;;;;;;;1.20;0.30;;;19.20;68.80;;;;;;5015580;28;20053;-84
2021/06/26 06:45:18;;;;;;;1.35;0.35;;;19.30;68.80;;;;;;5011036;28;20042;-84
2021/06/26 06:47:44;;;;;;;0.17;0.10;;;19.40;68.70;;;;;;5013329;28;20038;-83
2021/06/26 06:50:11;;;;;;;0.98;0.30;;;19.40;68.50;;;;;;5015283;28;20042;-84
2021/06/26 06:52:37;;;;;;;0.68;0.32;;;19.50;68.50;;;;;;5030217;28;20022;-85
2021/06/26 06:55:05;;;;;;;1.08;0.40;;;19.50;68.40;;;;;;5030536;28;20089;-84
2021/06/26 06:57:31;;;;;;;1.05;0.30;;;19.50;68.40;;;;;;5010286;28;20437;-84
2021/06/26 06:59:57;;;;;;;0.80;0.40;;;19.60;68.40;;;;;;5014841;28;20038;-83
2021/06/26 07:02:23;;;;;;;0.55;0.28;;;19.60;68.30;;;;;;5014404;28;20030;-84
2021/06/26 07:04:49;;;;;;;1.17;0.10;;;19.60;68.30;;;;;;5030330;28;20030;-84
2021/06/26 07:07:15;;;;;;;0.60;0.20;;;19.60;68.30;;;;;;5011796;28;20035;-83
2021/06/26 07:09:41;;;;;;;0.20;0.08;;;19.60;68.40;;;;;;5014077;28;20049;-85
2021/06/26 07:12:08;;;;;;;0.00;0.00;;;19.60;68.40;;;;;;5014131;28;20033;-84
2021/06/26 07:14:34;;;;;;;1.08;0.10;;;19.60;68.40;;;;;;5014805;28;20538;-84
2021/06/26 07:17:00;;;;;;;0.10;0.00;;;19.60;68.40;;;;;;5014243;28;20480;-84
2021/06/26 07:19:26;;;;;;;1.83;0.30;;;19.80;68.40;;;;;;5014737;28;20038;-84
2021/06/26 07:21:52;;;;;;;0.52;0.10;;;19.90;68.00;;;;;;5014519;28;20043;-85
2021/06/26 07:24:18;;;;;;;0.10;0.10;;;20.00;67.80;;;;;;4994779;28;20412;-84
2021/06/26 07:26:45;;;;;;;0.20;0.00;;;20.10;67.60;;;;;;5013249;28;20042;-84
2021/06/26 07:29:11;;;;;;;0.20;0.00;;;20.20;67.40;;;;;;5014382;28;20041;-84
2021/06/26 07:31:37;;;;;;;1.30;0.15;;;20.30;67.30;;;;;;5029410;28;20037;-85
2021/06/26 07:34:03;;;;;;;0.15;0.00;;;20.30;67.30;;;;;;5013325;28;20041;-84
2021/06/26 07:36:30;;;;;;;0.00;0.00;;;20.30;68.10;;;;;;5010718;28;20026;-85
2021/06/26 07:38:56;;;;;;;0.00;0.00;;;20.30;67.30;;;;;;5029562;28;20033;-84
2021/06/26 07:41:22;;;;;;;0.25;0.08;;;20.20;67.20;;;;;;5014459;28;20038;-84
2021/06/26 07:43:48;;;;;;;0.30;0.10;;;20.20;67.40;;;;;;5012926;28;20037;-84
2021/06/26 07:46:15;;;;;;;0.08;0.00;;;20.10;67.70;;;;;;5029285;28;20037;-85
2021/06/26 07:48:41;;;;;;;0.38;0.10;;;20.00;67.80;;;;;;5029406;28;20026;-84
2021/06/26 07:51:08;;;;;;;0.20;0.20;;;20.00;67.90;;;;;;5013764;28;20468;-84
2021/06/26 07:53:34;;;;;;;0.35;0.00;;;19.90;67.90;;;;;;5014554;28;20029;-84
2021/06/26 07:56:00;;;;;;;0.05;0.00;;;20.00;67.90;;;;;;5014458;28;20040;-83
2021/06/26 07:58:28;;;;;;;1.58;0.30;;;20.00;67.90;;;;;;5014020;28;20029;-84
2021/06/26 08:00:55;;;;;;;0.25;0.03;;;19.90;67.90;;;;;;5031177;28;20416;-83
2021/06/26 08:03:22;;;;;;;0.00;0.00;;;19.90;68.10;;;;;;5015758;28;20361;-84
2021/06/26 08:05:48;;;;;;;0.10;0.10;;;19.90;68.10;;;;;;5017380;28;20575;-84
2021/06/26 08:08:14;;;;;;;0.20;0.00;;;20.00;68.10;;;;;;5032224;28;20041;-84
2021/06/26 08:10:40;;;;;;;0.25;0.10;;;20.00;68.00;;;;;;5016599;28;20034;-84
2021/06/26 08:13:07;;;;;;;0.10;0.00;;;20.10;67.90;;;;;;5011972;28;20042;-84
2021/06/26 08:15:36;;;;;;;0.28;0.10;;;20.20;67.70;;;;;;5016667;28;20022;-85
2021/06/26 08:18:05;;;;;;;0.10;0.05;;;20.20;67.50;;;;;;5013414;28;20030;-84
2021/06/26 08:20:32;;;;;;;0.00;0.00;;;20.30;67.50;;;;;;5028697;28;20034;-84
2021/06/26 08:22:58;;;;;;;0.10;0.00;;;20.30;67.50;;;;;;5029010;28;20037;-85
2021/06/26 08:25:25;;;;;;;0.00;0.00;;;20.30;67.50;;;;;;5028890;28;20034;-85
2021/06/26 08:27:51;;;;;;;0.00;0.00;;;20.30;67.50;;;;;;5028679;28;20026;-84
2021/06/26 08:30:17;;;;;;;0.13;0.10;;;20.40;67.50;;;;;;5013521;28;20045;-85
2021/06/26 08:32:44;;;;;;;1.75;0.10;;;20.30;68.20;;;;;;5012990;28;20030;-84
2021/06/26 08:35:10;;;;;;;0.25;0.10;;;20.30;67.50;;;;;;5028507;28;20026;-84
2021/06/26 08:37:37;;;;;;;0.28;0.10;;;20.30;67.50;;;;;;5013292;28;20400;-85
2021/06/26 08:40:03;;;;;;;0.40;0.20;;;20.30;67.50;;;;;;5028145;28;20056;-84
2021/06/26 08:42:30;;;;;;;0.10;0.00;;;20.30;67.40;;;;;;5009749;28;20026;-84
2021/06/26 08:45:09;;;;;;;0.38;0.00;;;20.40;67.40;;;;;;5012953;28;20049;-84
2021/06/26 08:47:36;;;;;;;0.00;0.00;;;20.40;67.30;;;;;;5012335;28;20511;-84
2021/06/26 08:50:02;;;;;;;0.22;0.10;;;20.50;67.30;;;;;;5028232;28;20040;-86
2021/06/26 08:52:28;;;;;;;0.28;0.05;;;20.60;67.10;;;;;;5028089;28;20030;-85
2021/06/26 08:54:55;;;;;;;0.30;0.00;;;20.80;66.80;;;;;;5012253;28;20046;-84
2021/06/26 08:57:31;;;;;;;0.43;0.32;;;21.00;66.50;;;;;;5013539;28;20097;-85
2021/06/26 09:00:00;;;;;;;0.15;0.00;;;21.10;66.10;;;;;;5027634;28;20038;-84
2021/06/26 09:02:27;;;;;;;0.00;0.00;;;21.10;66.00;;;;;;5012334;28;20033;-84
2021/06/26 09:04:54;;;;;;;0.00;0.00;;;21.20;65.90;;;;;;5028201;28;20033;-84
2021/06/26 09:07:30;;;;;;;0.00;0.00;;;21.30;65.80;;;;;;5012839;28;20030;-84
2021/06/26 09:09:57;;;;;;;0.15;0.00;;;21.30;65.70;;;;;;5028013;28;20049;-86
2021/06/26 09:12:24;;;;;;;2.13;0.32;;;21.40;65.60;;;;;;5011983;28;20099;-85
2021/06/26 09:14:50;;;;;;;0.00;0.00;;;21.40;65.50;;;;;;5012676;28;20049;-84
2021/06/26 09:17:18;;;;;;;0.10;0.00;;;21.40;65.50;;;;;;5011885;28;20041;-84
2021/06/26 09:20:11;;;;;;;0.10;0.00;;;21.30;65.50;;;;;;5027741;28;20056;-83
2021/06/26 09:22:38;;;;;;;1.25;0.10;;;21.20;65.80;;;;;;5011044;28;20041;-85
2021/06/26 09:25:24;;;;;;;0.08;0.00;;;21.20;66.00;;;;;;5012727;28;20018;-84
2021/06/26 09:27:50;;;;;;;0.52;0.00;;;21.20;65.90;;;;;;5010190;28;20030;-84
2021/06/26 09:30:16;;;;;;;0.00;0.00;;;21.30;65.80;;;;;;5012160;28;20058;-84
2021/06/26 09:32:44;;;;;;;0.43;0.25;;;21.30;65.60;;;;;;5027426;28;20034;-84
2021/06/26 09:35:16;;;;;;;0.10;0.00;;;21.40;65.60;;;;;;5012392;28;20042;-85
2021/06/26 09:37:42;;;;;;;1.60;0.20;;;21.40;65.50;;;;;;5012526;28;20036;-84
2021/06/26 09:40:10;;;;;;;0.40;0.00;;;21.40;65.40;;;;;;5012238;28;20045;-85
2021/06/26 09:42:37;;;;;;;0.93;0.38;;;21.40;65.30;;;;;;5027790;28;20362;-84
2021/06/26 09:45:11;;;;;;;0.30;0.05;;;21.30;65.40;;;;;;4989707;28;20046;-84
2021/06/26 09:47:38;;;;;;;0.55;0.10;;;21.20;65.50;;;;;;5023800;28;20033;-84
2021/06/26 09:50:10;;;;;;;0.28;0.10;;;21.20;65.50;;;;;;5011983;28;20029;-84
2021/06/26 09:53:00;;;;;;;1.15;0.43;;;21.20;65.50;;;;;;5012221;28;20033;-85
2021/06/26 09:55:27;;;;;;;0.10;0.00;;;21.30;65.50;;;;;;5012087;28;20029;-84
2021/06/26 09:57:55;;;;;;;0.73;0.20;;;21.30;65.40;;;;;;5011265;28;20037;-85
2021/06/26 10:00:26;;;;;;;0.17;0.10;;;21.30;65.40;;;;;;5011840;28;20030;-85
2021/06/26 10:02:52;;;;;;;1.45;0.47;;;21.30;65.40;;;;;;5026716;28;20400;-84
2021/06/26 10:05:18;;;;;;;0.30;0.05;;;21.30;65.30;;;;;;5027268;28;20057;-84
2021/06/26 10:07:47;;;;;;;0.38;0.30;;;21.40;65.20;;;;;;5027195;28;20030;-82
2021/06/26 10:10:17;;;;;;;0.03;0.03;;;21.40;65.10;;;;;;5027046;28;20041;-84
2021/06/26 10:12:43;;;;;;;0.10;0.00;;;21.50;64.90;;;;;;5011975;28;20026;-83
2021/06/26 10:15:10;;;;;;;0.13;0.00;;;21.60;64.70;;;;;;5010502;28;20052;-85
2021/06/26 10:17:36;;;;;;;0.30;0.05;;;21.70;64.50;;;;;;5012526;28;20038;-84
2021/06/26 10:20:10;;;;;;;0.45;0.00;;;21.80;64.40;;;;;;5011752;28;20038;-85
2021/06/26 10:22:38;;;;;;;0.00;0.00;;;21.90;64.40;;;;;;5012224;28;20018;-85
2021/06/26 10:25:06;;;;;;;0.25;0.20;;;22.00;64.20;;;;;;5010425;28;20045;-84
2021/06/26 10:27:32;;;;;;;0.82;0.20;;;22.10;64.00;;;;;;5008581;28;20085;-84
2021/06/26 10:30:12;;;;;;;1.63;0.47;;;22.10;63.80;;;;;;5026528;28;20069;-85
2021/06/26 10:32:57;;;;;;;0.10;0.03;;;22.20;63.70;;;;;;5026393;28;20026;-87
2021/06/26 10:35:28;;;;;;;0.35;0.20;;;22.10;63.40;;;;;;5009336;28;20492;-84
2021/06/26 10:38:04;;;;;;;0.15;0.10;;;22.10;63.50;;;;;;5011791;28;20026;-84
2021/06/26 10:40:45;;;;;;;0.28;0.10;;;22.00;63.70;;;;;;5011528;28;20038;-84
2021/06/26 10:43:20;;;;;;;0.90;0.10;;;21.90;63.80;;;;;;5028448;28;20029;-85
2021/06/26 10:45:46;;;;;;;1.50;0.30;;;21.90;63.70;;;;;;5011562;28;20265;-84
2021/06/26 10:48:22;;;;;;;1.55;0.38;;;21.90;63.90;;;;;;5011082;28;20038;-84
2021/06/26 10:50:50;;;;;;;0.25;0.10;;;21.80;63.90;;;;;;5025793;28;20022;-84
2021/06/26 10:53:30;;;;;;;1.65;0.20;;;21.70;63.90;;;;;;5011664;28;20036;-84
2021/06/26 10:56:12;;;;;;;0.95;0.35;;;21.70;64.00;;;;;;5011595;28;20380;-84
2021/06/26 10:58:43;;;;;;;0.52;0.10;;;21.70;64.20;;;;;;5008942;28;20042;-84
2021/06/26 11:01:20;;;;;;;1.55;0.35;;;21.70;64.20;;;;;;5011031;28;20048;-85
2021/06/26 11:03:47;;;;;;;1.40;0.32;;;21.70;64.40;;;;;;5026626;28;20380;-85
2021/06/26 11:06:20;;;;;;;0.35;0.10;;;21.60;64.20;;;;;;5010841;28;20030;-85
2021/06/26 11:09:05;;;;;;;3.58;0.43;;;21.70;64.30;;;;;;5027235;28;20063;-85
2021/06/26 11:11:45;;;;;;;1.20;0.40;;;21.80;64.20;;;;;;5030303;28;20026;-85
2021/06/26 11:14:12;;;;;;;0.65;0.17;;;21.90;64.00;;;;;;5014798;28;20025;-85
2021/06/26 11:16:40;;;;;;;2.25;0.30;;;22.00;63.70;;;;;;5014475;28;20030;-85
2021/06/26 11:19:06;;;;;;;1.48;0.30;;;22.20;63.40;;;;;;5030381;28;20026;-84
2021/06/26 11:21:46;;;;;;;0.98;0.15;;;22.30;63.10;;;;;;5031248;28;20041;-85
2021/06/26 11:24:12;;;;;;;0.55;0.30;;;22.40;62.90;;;;;;5014429;28;20060;-85
2021/06/26 11:26:46;;;;;;;1.20;0.20;;;22.50;62.70;;;;;;5014563;28;20136;-86
2021/06/26 11:29:26;;;;;;;0.40;0.10;;;22.40;62.60;;;;;;5014320;28;20432;-86
2021/06/26 11:31:52;;;;;;;2.50;0.20;;;22.30;62.80;;;;;;5013994;28;20041;-85
2021/06/26 11:34:18;;;;;;;0.50;0.20;;;22.20;62.90;;;;;;5029965;28;20041;-86
2021/06/26 11:36:54;;;;;;;0.52;0.13;;;22.10;63.10;;;;;;5013731;28;20065;-86
2021/06/26 11:39:20;;;;;;;1.50;0.20;;;22.10;63.30;;;;;;5013848;28;20049;-86
2021/06/26 11:41:46;;;;;;;0.68;0.10;;;22.00;63.30;;;;;;5009482;28;20053;-85
2021/06/26 11:44:12;;;;;;;0.85;0.10;;;21.90;63.40;;;;;;5008023;28;20029;-86
2021/06/26 11:46:38;;;;;;;2.25;0.38;;;21.90;63.60;;;;;;5013923;28;20038;-86
2021/06/26 11:49:04;;;;;;;0.95;0.20;;;21.80;63.70;;;;;;5029472;28;20041;-85
2021/06/26 11:51:31;;;;;;;0.70;0.30;;;21.70;63.80;;;;;;5014836;28;20026;-85
2021/06/26 11:53:57;;;;;;;1.63;0.38;;;21.70;64.00;;;;;;5009364;28;20042;-86
2021/06/26 11:56:23;;;;;;;0.50;0.10;;;21.60;64.00;;;;;;5008892;28;20420;-85
2021/06/26 11:58:50;;;;;;;1.17;0.20;;;21.60;64.10;;;;;;5013983;28;20030;-85
2021/06/26 12:01:27;;;;;;;0.28;0.08;;;21.60;64.00;;;;;;5012240;28;20050;-85
2021/06/26 12:03:54;;;;;;;0.38;0.17;;;21.70;64.00;;;;;;5028715;28;20038;-85
2021/06/26 12:06:20;;;;;;;0.80;0.13;;;21.60;64.00;;;;;;4993861;28;20061;-85
2021/06/26 12:08:55;;;;;;;1.10;0.30;;;21.60;64.00;;;;;;5011025;28;20480;-85
2021/06/26 12:11:25;;;;;;;0.65;0.20;;;21.60;64.00;;;;;;5028779;28;20404;-84
2021/06/26 12:13:56;;;;;;;0.17;0.17;;;21.60;64.00;;;;;;5013708;28;20021;-86
2021/06/26 12:16:27;;;;;;;0.22;0.15;;;21.70;64.00;;;;;;5028436;28;20034;-85
2021/06/26 12:19:00;;;;;;;0.00;0.00;;;21.80;63.70;;;;;;5028605;28;20026;-85
2021/06/26 12:21:46;;;;;;;0.25;0.05;;;21.90;63.40;;;;;;5013428;28;20041;-85
2021/06/26 12:24:39;;;;;;;0.63;0.40;;;22.00;63.30;;;;;;5012527;28;20022;-85
2021/06/26 12:27:11;;;;;;;0.00;0.00;;;21.90;64.10;;;;;;5013958;28;20049;-85
2021/06/26 12:29:38;;;;;;;0.40;0.10;;;22.00;63.30;;;;;;5013761;28;20046;-87
2021/06/26 12:32:05;;;;;;;1.02;0.32;;;22.10;63.10;;;;;;5013367;28;20410;-84
2021/06/26 12:34:31;;;;;;;1.30;0.20;;;22.20;63.00;;;;;;5029199;28;20481;-84
2021/06/26 12:36:58;;;;;;;0.13;0.10;;;22.30;62.70;;;;;;5014214;28;20026;-86
2021/06/26 12:39:31;;;;;;;1.08;0.20;;;22.40;62.50;;;;;;5013804;28;20053;-85
2021/06/26 12:41:58;;;;;;;0.28;0.08;;;22.50;62.40;;;;;;5026877;28;20509;-86
2021/06/26 12:44:25;;;;;;;0.05;0.00;;;22.60;62.40;;;;;;5013176;28;20038;-84
2021/06/26 12:46:51;;;;;;;0.63;0.17;;;22.70;62.30;;;;;;5012769;28;20034;-85
2021/06/26 12:49:26;;;;;;;0.43;0.10;;;22.80;62.00;;;;;;5028442;28;20040;-85